Time;durP1;ratioP1;P1;durP2;ratioP2;P2;SDS_P1;SDS_P2;PMS_P1;PMS_P2;Temp;Humidity;BMP_temperature;BMP_pressure;BME280_temperature;BME280_humidity;BME280_pressure;Samples;Min_cycle;Max_cycle;Signal;HPM_P1;HPM_P2
2024/01/15 00:00:18;;;;;;;42.53;21.53;;;2.10;99.90;;;;;;5054234;28;21013;-65
2024/01/15 00:02:45;;;;;;;40.70;20.23;;;2.10;99.90;;;;;;5054460;28;20481;-65
2024/01/15 00:05:12;;;;;;;47.83;24.37;;;2.00;99.90;;;;;;5054445;28;20453;-66
2024/01/15 00:07:38;;;;;;;42.80;21.80;;;2.00;99.90;;;;;;5054819;28;20456;-65
2024/01/15 00:10:05;;;;;;;42.93;19.70;;;2.00;99.90;;;;;;5054143;28;20461;-65
2024/01/15 00:12:32;;;;;;;44.00;21.97;;;2.00;99.90;;;;;;5054397;28;20449;-64
2024/01/15 00:14:59;;;;;;;49.00;23.00;;;2.10;99.90;;;;;;5053877;28;20453;-65
2024/01/15 00:17:27;;;;;;;50.90;23.10;;;2.00;99.90;;;;;;5053766;28;20936;-65
2024/01/15 00:19:54;;;;;;;48.27;21.33;;;2.10;99.90;;;;;;5053587;28;20461;-65
2024/01/15 00:22:20;;;;;;;47.13;20.10;;;2.00;99.90;;;;;;5053909;28;20464;-65
2024/01/15 00:24:47;;;;;;;44.00;21.97;;;2.00;99.90;;;;;;5053721;28;20488;-65
2024/01/15 00:27:14;;;;;;;41.83;22.23;;;2.00;99.90;;;;;;5053743;28;20472;-65
2024/01/15 00:29:40;;;;;;;47.40;23.43;;;2.00;99.90;;;;;;5053686;28;20462;-65
2024/01/15 00:32:07;;;;;;;51.70;23.17;;;2.00;99.90;;;;;;5053350;28;20442;-65
2024/01/15 00:34:35;;;;;;;53.43;23.63;;;2.00;99.90;;;;;;5054438;28;20444;-65
2024/01/15 00:37:02;;;;;;;44.27;22.13;;;2.00;99.90;;;;;;5053628;28;20441;-65
2024/01/15 00:39:29;;;;;;;45.70;23.50;;;1.90;99.90;;;;;;5052927;28;20476;-66
2024/01/15 00:41:56;;;;;;;46.03;23.80;;;2.00;99.90;;;;;;5053476;28;20453;-65
2024/01/15 00:44:22;;;;;;;43.57;21.70;;;2.00;99.90;;;;;;5053122;28;20473;-65
2024/01/15 00:46:49;;;;;;;48.23;23.50;;;2.00;99.90;;;;;;5053108;28;20927;-65
2024/01/15 00:49:16;;;;;;;46.27;21.03;;;1.90;99.90;;;;;;5053294;28;20469;-65
2024/01/15 00:51:44;;;;;;;42.37;20.70;;;2.00;99.90;;;;;;5053102;28;20465;-65
2024/01/15 00:54:11;;;;;;;47.47;22.40;;;2.00;99.90;;;;;;5052986;28;20799;-67
2024/01/15 00:56:38;;;;;;;43.37;21.17;;;2.00;99.90;;;;;;5053074;28;20437;-67
2024/01/15 00:59:04;;;;;;;49.10;22.17;;;2.00;99.90;;;;;;5052650;28;20465;-68
2024/01/15 01:01:31;;;;;;;47.87;23.37;;;1.90;99.90;;;;;;5053185;28;20449;-67
2024/01/15 01:03:58;;;;;;;45.33;25.27;;;2.00;99.90;;;;;;5053011;28;20485;-65
2024/01/15 01:06:25;;;;;;;47.00;20.70;;;2.00;99.90;;;;;;5053237;28;20441;-65
2024/01/15 01:08:53;;;;;;;44.97;21.20;;;2.00;99.90;;;;;;5053104;28;20446;-65
2024/01/15 01:11:19;;;;;;;53.63;22.60;;;2.10;99.90;;;;;;5053142;28;20453;-65
2024/01/15 01:13:46;;;;;;;48.43;22.23;;;2.10;99.90;;;;;;5053117;28;20450;-65
2024/01/15 01:16:13;;;;;;;45.70;21.90;;;2.10;99.90;;;;;;5052843;28;20940;-65
2024/01/15 01:18:39;;;;;;;42.43;20.80;;;2.10;99.90;;;;;;5053132;28;20452;-65
2024/01/15 01:21:06;;;;;;;47.87;23.47;;;2.10;99.90;;;;;;5052655;28;20466;-65
2024/01/15 01:23:33;;;;;;;47.13;22.10;;;2.10;99.90;;;;;;5052633;28;20852;-65
2024/01/15 01:26:01;;;;;;;43.23;21.00;;;2.10;99.90;;;;;;5052981;28;20452;-64
2024/01/15 01:28:28;;;;;;;41.30;21.70;;;2.10;99.90;;;;;;5052891;28;20528;-65
2024/01/15 01:30:55;;;;;;;45.30;22.97;;;2.10;99.90;;;;;;5053042;28;20465;-64
2024/01/15 01:33:22;;;;;;;45.87;22.47;;;2.10;99.90;;;;;;5052979;28;20449;-65
2024/01/15 01:35:49;;;;;;;38.27;19.93;;;2.10;99.90;;;;;;5052967;28;20853;-65
2024/01/15 01:38:15;;;;;;;43.67;21.53;;;2.20;99.90;;;;;;5052899;28;20456;-64
2024/01/15 01:40:42;;;;;;;43.90;21.50;;;2.20;99.90;;;;;;5052843;28;20468;-65
2024/01/15 01:43:11;;;;;;;42.60;20.07;;;2.20;99.90;;;;;;5052566;28;20960;-64
2024/01/15 01:45:38;;;;;;;50.63;21.70;;;2.20;99.90;;;;;;5052733;28;20445;-64
2024/01/15 01:48:06;;;;;;;37.87;19.27;;;2.20;99.90;;;;;;5053331;28;20450;-65
2024/01/15 01:50:32;;;;;;;43.10;21.80;;;2.10;99.90;;;;;;5054146;28;20991;-65
2024/01/15 01:53:00;;;;;;;33.20;18.50;;;2.20;99.90;;;;;;5056986;28;20837;-66
2024/01/15 01:55:30;;;;;;;44.43;21.17;;;2.20;99.90;;;;;;5057997;28;20450;-65
2024/01/15 01:57:57;;;;;;;37.17;20.13;;;2.20;99.90;;;;;;5058201;28;20436;-65
2024/01/15 02:00:25;;;;;;;37.30;19.40;;;2.20;99.90;;;;;;5057223;28;20857;-65
2024/01/15 02:02:52;;;;;;;39.00;20.97;;;2.20;99.90;;;;;;5056929;28;20848;-65
2024/01/15 02:05:21;;;;;;;43.40;19.83;;;2.20;99.90;;;;;;5057183;28;20488;-66
2024/01/15 02:07:48;;;;;;;41.17;20.60;;;2.20;99.90;;;;;;5057380;28;20481;-66
2024/01/15 02:10:15;;;;;;;42.87;22.13;;;2.30;99.90;;;;;;5056847;28;20544;-65
2024/01/15 02:12:43;;;;;;;41.73;20.93;;;2.30;99.90;;;;;;5057071;28;20445;-65
2024/01/15 02:15:10;;;;;;;39.47;21.17;;;2.20;99.90;;;;;;5057129;28;20437;-67
2024/01/15 02:17:58;;;;;;;37.80;20.60;;;2.20;99.90;;;;;;5056952;28;20442;-66
2024/01/15 02:20:25;;;;;;;41.60;21.57;;;2.30;99.90;;;;;;5056748;28;20476;-66
2024/01/15 02:22:51;;;;;;;44.60;20.10;;;2.30;99.90;;;;;;5056459;28;20445;-66
2024/01/15 02:25:20;;;;;;;38.90;21.30;;;2.30;99.90;;;;;;5056159;28;20527;-66
2024/01/15 02:27:48;;;;;;;37.73;20.20;;;2.30;99.90;;;;;;5056690;28;20449;-66
2024/01/15 02:30:14;;;;;;;41.80;20.07;;;2.20;99.90;;;;;;5056371;28;20472;-66
2024/01/15 02:32:41;;;;;;;38.80;20.03;;;2.30;99.90;;;;;;5056393;28;20449;-66
2024/01/15 02:35:08;;;;;;;35.93;18.60;;;2.20;99.90;;;;;;5056421;28;20457;-66
2024/01/15 02:37:35;;;;;;;37.60;18.23;;;2.30;99.90;;;;;;5056112;28;20445;-67
2024/01/15 02:40:01;;;;;;;29.83;16.10;;;2.30;99.90;;;;;;5055918;28;20485;-67
2024/01/15 02:42:29;;;;;;;35.77;18.00;;;2.30;99.90;;;;;;5055932;28;20449;-66
2024/01/15 02:44:56;;;;;;;30.90;16.40;;;2.30;99.90;;;;;;5055686;28;20477;-66
2024/01/15 02:47:23;;;;;;;35.80;18.40;;;2.30;99.90;;;;;;5055872;28;20437;-66
2024/01/15 02:49:49;;;;;;;29.87;15.63;;;2.30;99.90;;;;;;5055816;28;20469;-66
2024/01/15 02:52:16;;;;;;;34.60;18.00;;;2.30;99.90;;;;;;5055193;28;20457;-66
2024/01/15 02:54:43;;;;;;;34.70;16.70;;;2.30;99.90;;;;;;5055915;28;20441;-66
2024/01/15 02:57:10;;;;;;;28.77;16.73;;;2.30;99.90;;;;;;5055411;28;20955;-66
2024/01/15 02:59:38;;;;;;;34.10;17.80;;;2.30;99.90;;;;;;5055381;28;20469;-66
2024/01/15 03:02:05;;;;;;;35.50;18.03;;;2.30;99.90;;;;;;5055045;28;20445;-66
2024/01/15 03:04:31;;;;;;;29.83;16.60;;;2.30;99.90;;;;;;5055142;28;20500;-66
2024/01/15 03:06:58;;;;;;;32.07;17.47;;;2.30;99.90;;;;;;5055351;28;20444;-66
2024/01/15 03:09:25;;;;;;;32.50;18.17;;;2.30;99.90;;;;;;5055195;28;20477;-66
2024/01/15 03:11:51;;;;;;;29.93;18.13;;;2.30;99.90;;;;;;5054971;28;20446;-65
2024/01/15 03:14:18;;;;;;;31.27;16.97;;;2.30;99.90;;;;;;5055212;28;20438;-65
2024/01/15 03:16:46;;;;;;;35.30;18.87;;;2.40;99.90;;;;;;5055218;28;20442;-65
2024/01/15 03:19:13;;;;;;;30.57;20.20;;;2.30;99.90;;;;;;5055021;28;20457;-65
2024/01/15 03:21:39;;;;;;;30.93;18.13;;;2.40;99.90;;;;;;5055209;28;20825;-65
2024/01/15 03:24:06;;;;;;;33.30;18.73;;;2.40;99.90;;;;;;5054842;28;20481;-65
2024/01/15 03:26:33;;;;;;;32.90;18.30;;;2.30;99.90;;;;;;5054951;28;20445;-65
2024/01/15 03:28:59;;;;;;;29.80;17.77;;;2.30;99.90;;;;;;5054447;28;20936;-65
2024/01/15 03:31:26;;;;;;;34.27;18.63;;;2.40;99.90;;;;;;5054468;28;20449;-65
2024/01/15 03:33:54;;;;;;;29.80;17.00;;;2.40;99.90;;;;;;5054666;28;20465;-64
2024/01/15 03:36:21;;;;;;;32.40;16.73;;;2.40;99.90;;;;;;5054709;28;20449;-64
2024/01/15 03:38:47;;;;;;;38.43;19.00;;;2.40;99.90;;;;;;5055068;28;20452;-64
2024/01/15 03:41:14;;;;;;;35.10;17.97;;;2.40;99.90;;;;;;5054665;28;20441;-64
2024/01/15 03:43:41;;;;;;;27.57;15.60;;;2.40;99.90;;;;;;5054549;28;20452;-65
2024/01/15 03:46:08;;;;;;;32.67;17.03;;;2.40;99.90;;;;;;5054396;28;21048;-66
2024/01/15 03:48:35;;;;;;;26.50;16.07;;;2.40;99.90;;;;;;5054635;28;20457;-65
2024/01/15 03:51:03;;;;;;;24.43;14.50;;;2.40;99.90;;;;;;5054124;28;20971;-65
2024/01/15 03:53:30;;;;;;;31.00;14.90;;;2.40;99.90;;;;;;5053851;28;20465;-65
2024/01/15 03:55:57;;;;;;;25.10;14.83;;;2.30;99.90;;;;;;5054376;28;20453;-64
2024/01/15 03:58:24;;;;;;;26.57;15.60;;;2.30;99.90;;;;;;5054345;28;20438;-65
2024/01/15 04:00:50;;;;;;;26.13;14.87;;;2.30;99.90;;;;;;5054145;28;20470;-65
2024/01/15 04:03:17;;;;;;;27.70;15.13;;;2.30;99.90;;;;;;5054172;28;20468;-65
2024/01/15 04:05:44;;;;;;;26.63;14.93;;;2.30;99.90;;;;;;5054064;28;20513;-65
2024/01/15 04:08:12;;;;;;;33.00;15.40;;;2.30;99.90;;;;;;5054146;28;20449;-65
2024/01/15 04:10:39;;;;;;;26.03;15.00;;;2.40;99.90;;;;;;5053574;28;20899;-65
2024/01/15 04:13:05;;;;;;;24.70;15.73;;;2.40;99.90;;;;;;5054018;28;20441;-65
2024/01/15 04:15:32;;;;;;;32.43;15.70;;;2.40;99.90;;;;;;5053290;28;20441;-64
2024/01/15 04:18:00;;;;;;;29.10;15.30;;;2.40;99.90;;;;;;5054110;28;20450;-64
2024/01/15 04:20:27;;;;;;;24.93;14.40;;;2.40;99.90;;;;;;5053718;28;21023;-65
2024/01/15 04:22:54;;;;;;;28.03;15.13;;;2.50;99.90;;;;;;5053955;28;20444;-65
2024/01/15 04:25:22;;;;;;;25.77;15.00;;;2.40;99.90;;;;;;5053803;28;20473;-65
2024/01/15 04:27:49;;;;;;;22.97;12.97;;;2.30;99.90;;;;;;5054183;28;20441;-66
2024/01/15 04:30:16;;;;;;;24.77;14.17;;;2.40;99.90;;;;;;5053876;28;20457;-66
2024/01/15 04:32:42;;;;;;;19.97;13.83;;;2.40;99.90;;;;;;5054069;28;20449;-66
2024/01/15 04:35:09;;;;;;;23.07;12.40;;;2.40;99.90;;;;;;5053338;28;20990;-66
2024/01/15 04:37:36;;;;;;;23.23;12.47;;;2.40;99.90;;;;;;5053917;28;20452;-66
2024/01/15 04:40:03;;;;;;;27.17;14.53;;;2.40;99.90;;;;;;5053891;28;20465;-66
2024/01/15 04:42:31;;;;;;;22.13;11.90;;;2.40;99.90;;;;;;5053269;28;20943;-66
2024/01/15 04:44:58;;;;;;;23.37;12.90;;;2.40;99.90;;;;;;5053629;28;20477;-66
2024/01/15 04:47:25;;;;;;;25.73;13.57;;;2.40;99.90;;;;;;5053739;28;20449;-66
2024/01/15 04:49:52;;;;;;;24.50;13.60;;;2.40;99.90;;;;;;5053500;28;20457;-67
2024/01/15 04:52:18;;;;;;;20.13;12.63;;;2.30;99.90;;;;;;5053194;28;20453;-67
2024/01/15 04:54:45;;;;;;;25.07;13.00;;;2.40;99.90;;;;;;5053352;28;20815;-68
2024/01/15 04:57:12;;;;;;;21.30;12.00;;;2.40;99.90;;;;;;5053567;28;20445;-68
2024/01/15 04:59:40;;;;;;;20.40;13.13;;;2.50;99.90;;;;;;5053570;28;20465;-68
2024/01/15 05:02:07;;;;;;;17.10;10.10;;;2.40;99.90;;;;;;5054055;28;20477;-68
2024/01/15 05:04:34;;;;;;;15.50;10.27;;;2.40;99.90;;;;;;5055284;28;20482;-68
2024/01/15 05:07:00;;;;;;;22.80;10.03;;;2.40;99.90;;;;;;5055684;28;20838;-68
2024/01/15 05:09:27;;;;;;;18.13;10.37;;;2.40;99.90;;;;;;5055578;28;20474;-68
2024/01/15 05:11:54;;;;;;;22.97;11.60;;;2.30;99.90;;;;;;5054396;28;20457;-68
2024/01/15 05:14:20;;;;;;;27.70;12.93;;;2.30;99.90;;;;;;5054381;28;20452;-68
2024/01/15 05:16:51;;;;;;;19.60;10.27;;;2.30;99.90;;;;;;5053540;28;20936;-67
2024/01/15 05:19:19;;;;;;;28.00;11.93;;;2.30;99.90;;;;;;5053597;28;20466;-67
2024/01/15 05:21:46;;;;;;;19.37;11.17;;;2.30;99.90;;;;;;5053534;28;20449;-67
2024/01/15 05:24:12;;;;;;;26.43;10.50;;;2.40;99.90;;;;;;5053766;28;20445;-67
2024/01/15 05:26:39;;;;;;;14.93;10.53;;;2.40;99.90;;;;;;5055857;28;20438;-68
2024/01/15 05:29:06;;;;;;;22.90;10.30;;;2.40;99.90;;;;;;5057492;28;20464;-68
2024/01/15 05:31:32;;;;;;;19.57;11.03;;;2.40;99.90;;;;;;5057198;28;20452;-68
2024/01/15 05:34:01;;;;;;;14.97;9.70;;;2.40;99.90;;;;;;5057169;28;20452;-68
2024/01/15 05:36:27;;;;;;;19.87;10.07;;;2.40;99.90;;;;;;5057203;28;20444;-68
2024/01/15 05:38:54;;;;;;;18.67;10.57;;;2.40;99.90;;;;;;5056881;28;20943;-68
2024/01/15 05:41:21;;;;;;;17.00;10.83;;;2.40;99.90;;;;;;5057832;28;20446;-67
2024/01/15 05:43:47;;;;;;;18.80;12.07;;;2.40;99.90;;;;;;5057033;28;20506;-67
2024/01/15 05:46:15;;;;;;;21.97;11.57;;;2.40;99.90;;;;;;5057136;28;20484;-67
2024/01/15 05:48:42;;;;;;;17.50;11.47;;;2.50;99.90;;;;;;5056956;28;20449;-68
2024/01/15 05:51:11;;;;;;;20.50;12.33;;;2.50;99.90;;;;;;5056743;28;20462;-67
2024/01/15 05:53:40;;;;;;;18.83;10.50;;;2.50;99.90;;;;;;5056620;28;20468;-67
2024/01/15 05:56:07;;;;;;;16.57;10.27;;;2.50;99.90;;;;;;5056851;28;20471;-68
2024/01/15 05:58:33;;;;;;;20.43;10.03;;;2.50;99.90;;;;;;5057069;28;20446;-68
2024/01/15 06:01:00;;;;;;;17.60;10.47;;;2.50;99.90;;;;;;5056518;28;20468;-68
2024/01/15 06:03:28;;;;;;;16.57;10.30;;;2.50;99.90;;;;;;5056805;28;20448;-68
2024/01/15 06:05:55;;;;;;;15.27;10.43;;;2.50;99.90;;;;;;5056832;28;20484;-67
2024/01/15 06:08:23;;;;;;;17.10;10.07;;;2.60;99.90;;;;;;5056715;28;20449;-67
2024/01/15 06:10:49;;;;;;;18.00;10.37;;;2.50;99.90;;;;;;5056697;28;20492;-67
2024/01/15 06:13:16;;;;;;;17.53;11.37;;;2.50;99.90;;;;;;5056679;28;20437;-67
2024/01/15 06:15:43;;;;;;;15.30;9.33;;;2.50;99.90;;;;;;5056753;28;20449;-68
2024/01/15 06:18:09;;;;;;;14.90;10.00;;;2.50;99.90;;;;;;5056903;28;20452;-68
2024/01/15 06:20:36;;;;;;;15.57;9.20;;;2.50;99.90;;;;;;5056060;28;20839;-68
2024/01/15 06:23:03;;;;;;;14.50;9.20;;;2.50;99.90;;;;;;5056598;28;20468;-68
2024/01/15 06:25:31;;;;;;;21.90;10.87;;;2.50;99.90;;;;;;5056458;28;20503;-68
2024/01/15 06:27:58;;;;;;;19.27;10.90;;;2.50;99.90;;;;;;5056285;28;20449;-68
2024/01/15 06:30:24;;;;;;;22.63;12.03;;;2.50;99.90;;;;;;5056273;28;20461;-69
2024/01/15 06:32:51;;;;;;;26.37;12.47;;;2.50;99.90;;;;;;5055977;28;20445;-68
2024/01/15 06:35:18;;;;;;;20.30;13.67;;;2.50;99.90;;;;;;5056355;28;20465;-68
2024/01/15 06:37:44;;;;;;;18.90;13.07;;;2.50;99.90;;;;;;5055162;28;20811;-68
2024/01/15 06:40:12;;;;;;;21.37;12.83;;;2.50;99.90;;;;;;5056256;28;20470;-68
2024/01/15 06:42:40;;;;;;;17.73;12.80;;;2.50;99.90;;;;;;5056233;28;20450;-68
2024/01/15 06:45:07;;;;;;;21.93;12.83;;;2.50;99.90;;;;;;5056129;28;20576;-68
2024/01/15 06:47:34;;;;;;;18.20;13.77;;;2.50;99.90;;;;;;5056240;28;20446;-67
2024/01/15 06:50:01;;;;;;;19.97;13.20;;;2.50;99.90;;;;;;5056383;28;20465;-67
2024/01/15 06:52:27;;;;;;;24.67;13.60;;;2.40;99.90;;;;;;5055477;28;20461;-67
2024/01/15 06:54:54;;;;;;;26.70;13.33;;;2.40;99.90;;;;;;5055529;28;20442;-68
2024/01/15 06:57:21;;;;;;;17.90;12.23;;;2.40;99.90;;;;;;5055807;28;20464;-67
2024/01/15 06:59:49;;;;;;;21.03;12.40;;;2.40;99.90;;;;;;5055539;28;20465;-67
2024/01/15 07:02:16;;;;;;;20.53;14.20;;;2.40;99.90;;;;;;5055509;28;20446;-67
2024/01/15 07:04:43;;;;;;;17.33;12.60;;;2.50;99.90;;;;;;5055959;28;20448;-67
2024/01/15 07:07:10;;;;;;;22.70;12.93;;;2.50;99.90;;;;;;5055460;28;20955;-67
2024/01/15 07:09:36;;;;;;;19.17;13.20;;;2.50;99.90;;;;;;5055641;28;20462;-67
2024/01/15 07:12:03;;;;;;;24.40;13.77;;;2.50;99.90;;;;;;5055447;28;20452;-68
2024/01/15 07:14:30;;;;;;;26.23;13.87;;;2.50;99.90;;;;;;5055422;28;20441;-67
2024/01/15 07:16:58;;;;;;;33.57;13.70;;;2.50;99.90;;;;;;5055436;28;20442;-67
2024/01/15 07:19:25;;;;;;;27.87;14.63;;;2.50;99.90;;;;;;5055582;28;20465;-67
2024/01/15 07:21:51;;;;;;;23.43;15.53;;;2.40;99.90;;;;;;5055495;28;20450;-67
2024/01/15 07:24:18;;;;;;;22.63;13.60;;;2.50;99.90;;;;;;5055596;28;20442;-67
2024/01/15 07:26:45;;;;;;;22.27;14.90;;;2.50;99.90;;;;;;5054999;28;20488;-66
2024/01/15 07:29:11;;;;;;;25.03;15.07;;;2.40;99.90;;;;;;5055229;28;20978;-67
2024/01/15 07:31:38;;;;;;;24.53;14.70;;;2.50;99.90;;;;;;5063627;28;20441;-66
2024/01/15 07:34:06;;;;;;;25.63;16.00;;;2.50;99.90;;;;;;5056533;28;20448;-67
2024/01/15 07:36:33;;;;;;;22.53;15.20;;;2.60;99.90;;;;;;5055434;28;20437;-66
2024/01/15 07:38:59;;;;;;;23.63;16.07;;;2.50;99.90;;;;;;5054962;28;20441;-67
2024/01/15 07:41:26;;;;;;;29.60;15.80;;;2.50;99.90;;;;;;5054796;28;20437;-67
2024/01/15 07:43:53;;;;;;;25.43;16.70;;;2.50;99.90;;;;;;5054752;28;20438;-66
2024/01/15 07:46:20;;;;;;;26.20;16.80;;;2.50;99.90;;;;;;5055048;28;20482;-67
2024/01/15 07:48:46;;;;;;;31.07;19.27;;;2.50;99.90;;;;;;5055007;28;20445;-67
2024/01/15 07:51:14;;;;;;;31.20;16.83;;;2.60;99.90;;;;;;5054620;28;20954;-67
2024/01/15 07:53:41;;;;;;;38.37;19.00;;;2.50;99.90;;;;;;5054671;28;20446;-67
2024/01/15 07:56:08;;;;;;;27.87;17.20;;;2.50;99.90;;;;;;5054494;28;20442;-67
2024/01/15 07:58:34;;;;;;;33.30;18.87;;;2.50;99.90;;;;;;5055050;28;20468;-67
2024/01/15 08:01:01;;;;;;;28.10;17.57;;;2.50;99.90;;;;;;5054906;28;20462;-67
2024/01/15 08:03:28;;;;;;;30.10;16.90;;;2.50;99.90;;;;;;5054287;28;20923;-67
2024/01/15 08:05:57;;;;;;;32.90;17.40;;;2.50;99.90;;;;;;5055609;28;20504;-67
2024/01/15 08:08:25;;;;;;;31.00;15.80;;;2.40;99.90;;;;;;5055114;28;20441;-67
2024/01/15 08:10:52;;;;;;;27.20;16.50;;;2.40;99.90;;;;;;5056033;28;20465;-67
2024/01/15 08:13:19;;;;;;;25.83;16.93;;;2.40;99.90;;;;;;5056800;28;20471;-68
2024/01/15 08:15:46;;;;;;;24.50;15.97;;;2.40;99.90;;;;;;5057608;28;20453;-67
2024/01/15 08:18:13;;;;;;;26.93;17.47;;;2.40;99.90;;;;;;5058635;28;20446;-67
2024/01/15 08:20:41;;;;;;;26.23;16.33;;;2.40;99.90;;;;;;5058796;28;20842;-67
2024/01/15 08:23:07;;;;;;;28.53;16.60;;;2.40;99.90;;;;;;5059953;28;20517;-67
2024/01/15 08:25:36;;;;;;;24.57;15.80;;;2.30;99.90;;;;;;5058837;28;20481;-67
2024/01/15 08:28:02;;;;;;;27.70;15.23;;;2.30;99.90;;;;;;5058042;28;20450;-67
2024/01/15 08:30:29;;;;;;;27.80;16.90;;;2.30;99.90;;;;;;5058467;28;20854;-68
2024/01/15 08:32:56;;;;;;;26.60;16.57;;;2.40;99.90;;;;;;5058638;28;20457;-67
2024/01/15 08:35:24;;;;;;;24.40;14.70;;;2.30;99.90;;;;;;5058269;28;20445;-68
2024/01/15 08:37:51;;;;;;;25.70;14.87;;;2.40;99.90;;;;;;5055711;28;20446;-69
2024/01/15 08:40:18;;;;;;;31.83;16.27;;;2.30;99.90;;;;;;5053970;28;20461;-68
2024/01/15 08:42:46;;;;;;;24.77;15.50;;;2.30;99.90;;;;;;5054346;28;20442;-68
2024/01/15 08:45:13;;;;;;;28.30;17.67;;;2.30;99.90;;;;;;5054079;28;20445;-68
2024/01/15 08:47:40;;;;;;;32.20;17.47;;;2.30;99.90;;;;;;5054229;28;20441;-68
2024/01/15 08:50:09;;;;;;;30.23;18.73;;;2.30;99.90;;;;;;5053841;28;20476;-68
2024/01/15 08:52:37;;;;;;;31.00;17.90;;;2.30;99.90;;;;;;5053314;28;20457;-68
2024/01/15 08:55:04;;;;;;;24.00;15.50;;;2.30;99.90;;;;;;5053595;28;20544;-69
2024/01/15 08:57:31;;;;;;;32.17;17.30;;;2.30;99.90;;;;;;5053747;28;20450;-68
2024/01/15 08:59:59;;;;;;;27.03;18.30;;;2.30;99.90;;;;;;5053381;28;20492;-69
2024/01/15 09:02:26;;;;;;;25.47;15.90;;;2.20;99.90;;;;;;5053449;28;20449;-69
2024/01/15 09:04:52;;;;;;;21.57;14.17;;;2.20;99.90;;;;;;5053542;28;20450;-69
2024/01/15 09:07:19;;;;;;;23.60;14.60;;;2.20;99.90;;;;;;5053669;28;20476;-69
2024/01/15 09:09:46;;;;;;;21.30;14.23;;;2.30;99.90;;;;;;5053491;28;20508;-69
2024/01/15 09:12:15;;;;;;;23.53;13.37;;;2.20;99.90;;;;;;5053478;28;20437;-69
2024/01/15 09:14:42;;;;;;;22.03;13.00;;;2.30;99.90;;;;;;5053198;28;20461;-69
2024/01/15 09:17:10;;;;;;;18.10;11.50;;;2.30;99.90;;;;;;5053521;28;20437;-70
2024/01/15 09:19:36;;;;;;;16.23;10.87;;;2.30;99.90;;;;;;5053394;28;20458;-69
2024/01/15 09:22:03;;;;;;;15.07;11.20;;;2.20;99.90;;;;;;5053566;28;20442;-68
2024/01/15 09:24:30;;;;;;;17.83;11.93;;;2.20;99.90;;;;;;5053598;28;20456;-69
2024/01/15 09:26:57;;;;;;;18.77;11.43;;;2.10;99.90;;;;;;5053876;28;20488;-69
2024/01/15 09:29:23;;;;;;;17.37;10.53;;;2.10;99.90;;;;;;5053344;28;20462;-69
2024/01/15 09:31:51;;;;;;;15.03;9.60;;;2.20;99.90;;;;;;5053205;28;20444;-69
2024/01/15 09:34:19;;;;;;;13.13;10.07;;;2.20;99.90;;;;;;5052755;28;20994;-69
2024/01/15 09:36:46;;;;;;;12.77;8.83;;;2.20;99.90;;;;;;5053200;28;20441;-69
2024/01/15 09:39:12;;;;;;;13.40;9.80;;;2.20;99.90;;;;;;5053061;28;20469;-69
2024/01/15 09:41:39;;;;;;;10.87;8.77;;;2.30;99.90;;;;;;5053095;28;20442;-69
2024/01/15 09:44:07;;;;;;;11.00;9.37;;;2.30;99.90;;;;;;5053205;28;20453;-69
2024/01/15 09:46:34;;;;;;;11.20;8.70;;;2.30;99.90;;;;;;5052978;28;20513;-69
2024/01/15 09:49:01;;;;;;;10.77;8.73;;;2.30;99.90;;;;;;5052864;28;20445;-69
2024/01/15 09:51:32;;;;;;;13.30;9.80;;;2.30;99.90;;;;;;5052785;28;20549;-69
2024/01/15 09:53:59;;;;;;;13.40;10.00;;;2.40;99.90;;;;;;5052798;28;20430;-69
2024/01/15 09:56:26;;;;;;;12.73;10.40;;;2.40;99.90;;;;;;5052934;28;20495;-69
2024/01/15 09:58:53;;;;;;;10.53;9.07;;;2.40;99.90;;;;;;5052552;28;20940;-69
2024/01/15 10:01:21;;;;;;;11.90;9.83;;;2.50;99.90;;;;;;5052915;28;20442;-69
2024/01/15 10:03:48;;;;;;;11.20;8.80;;;2.50;99.90;;;;;;5052792;28;20454;-69
2024/01/15 10:06:17;;;;;;;9.57;8.17;;;2.50;99.90;;;;;;5052908;28;20485;-68
2024/01/15 10:08:49;;;;;;;10.00;7.27;;;2.40;99.90;;;;;;5052859;28;20472;-69
2024/01/15 10:11:16;;;;;;;8.33;6.50;;;2.50;99.90;;;;;;5052669;28;20796;-69
2024/01/15 10:13:44;;;;;;;8.90;5.67;;;2.50;99.90;;;;;;5054682;28;20907;-69
2024/01/15 10:16:10;;;;;;;7.20;5.83;;;2.50;99.90;;;;;;5055987;28;20932;-69
2024/01/15 10:18:39;;;;;;;6.47;5.20;;;2.50;99.90;;;;;;5056311;28;20473;-68
2024/01/15 10:21:07;;;;;;;6.90;5.77;;;2.50;99.90;;;;;;5055783;28;20849;-69
2024/01/15 10:23:34;;;;;;;5.30;4.73;;;2.50;99.90;;;;;;5056260;28;20446;-68
2024/01/15 10:26:02;;;;;;;7.43;5.60;;;2.50;99.90;;;;;;5056351;28;20477;-69
2024/01/15 10:28:31;;;;;;;6.30;4.50;;;2.40;99.90;;;;;;5056420;28;20444;-69
2024/01/15 10:30:59;;;;;;;5.77;5.23;;;2.40;99.90;;;;;;5056221;28;20469;-69
2024/01/15 10:33:27;;;;;;;5.17;4.20;;;2.40;99.90;;;;;;5056028;28;20489;-70
2024/01/15 10:35:55;;;;;;;5.87;5.27;;;2.40;99.90;;;;;;5055695;28;20940;-69
2024/01/15 10:38:22;;;;;;;4.60;4.10;;;2.40;99.90;;;;;;5055867;28;20434;-70
2024/01/15 10:40:51;;;;;;;4.00;3.60;;;2.40;99.90;;;;;;5055808;28;20465;-69
2024/01/15 10:43:20;;;;;;;7.63;4.50;;;2.50;99.90;;;;;;5055624;28;20939;-69
2024/01/15 10:45:47;;;;;;;6.47;4.60;;;2.50;99.90;;;;;;5055774;28;20835;-69
2024/01/15 10:48:14;;;;;;;6.20;3.97;;;2.60;99.90;;;;;;5055751;28;20441;-69
2024/01/15 10:50:41;;;;;;;4.70;4.30;;;2.60;99.90;;;;;;5055309;28;20510;-69
2024/01/15 10:53:10;;;;;;;4.90;3.47;;;2.60;99.90;;;;;;5055221;28;20456;-69
2024/01/15 10:55:39;;;;;;;4.57;3.90;;;2.60;99.90;;;;;;5055831;28;20469;-69
2024/01/15 10:58:07;;;;;;;3.87;3.57;;;2.70;99.90;;;;;;5055580;28;20438;-69
2024/01/15 11:00:37;;;;;;;5.53;3.70;;;2.60;99.90;;;;;;5055421;28;20820;-69
2024/01/15 11:03:05;;;;;;;3.00;2.80;;;2.60;99.90;;;;;;5055628;28;20525;-69
2024/01/15 11:05:34;;;;;;;3.37;3.10;;;2.70;99.90;;;;;;5055472;28;20495;-69
2024/01/15 11:08:02;;;;;;;5.10;3.97;;;2.70;99.90;;;;;;5055414;28;20485;-69
2024/01/15 11:10:42;;;;;;;4.40;3.60;;;2.80;99.90;;;;;;5055384;28;20473;-69
2024/01/15 11:13:11;;;;;;;5.23;3.40;;;2.90;99.90;;;;;;5055301;28;20449;-69
2024/01/15 11:15:56;;;;;;;2.83;2.63;;;2.80;99.90;;;;;;5055218;28;20499;-69
2024/01/15 11:18:23;;;;;;;3.73;3.30;;;2.70;99.90;;;;;;5055346;28;20422;-69
2024/01/15 11:21:27;;;;;;;4.53;3.73;;;2.80;99.90;;;;;;5055250;28;20464;-69
2024/01/15 11:23:56;;;;;;;3.50;3.20;;;2.80;99.90;;;;;;5050165;28;20489;-68
2024/01/15 11:26:35;;;;;;;5.53;3.27;;;2.70;99.90;;;;;;5056191;28;20478;-68
2024/01/15 11:29:05;;;;;;;3.43;3.13;;;2.80;99.90;;;;;;5055199;28;20488;-68
2024/01/15 11:32:06;;;;;;;3.70;3.40;;;2.70;99.90;;;;;;5056528;28;20453;-68
2024/01/15 11:34:57;;;;;;;4.73;4.33;;;2.70;99.90;;;;;;5057612;28;20457;-69
2024/01/15 11:37:25;;;;;;;6.20;4.33;;;2.70;99.90;;;;;;5059940;28;20418;-69
2024/01/15 11:39:53;;;;;;;5.33;4.83;;;2.70;99.90;;;;;;5071720;28;20461;-68
2024/01/15 11:42:21;;;;;;;7.90;5.50;;;2.80;99.90;;;;;;5074327;28;20480;-69
2024/01/15 11:44:48;;;;;;;8.57;5.83;;;2.70;99.90;;;;;;5073222;28;20441;-68
2024/01/15 11:47:16;;;;;;;7.33;6.50;;;2.80;99.90;;;;;;5073296;28;20476;-68
2024/01/15 11:50:01;;;;;;;9.07;7.10;;;3.00;99.90;;;;;;5071748;28;20481;-68
2024/01/15 11:52:33;;;;;;;9.90;8.37;;;3.20;99.90;;;;;;5054569;28;20971;-68
2024/01/15 11:55:07;;;;;;;23.57;7.93;;;3.20;99.90;;;;;;5062674;28;20441;-68
2024/01/15 11:57:41;;;;;;;8.10;7.30;;;3.30;99.90;;;;;;5074716;28;20429;-68
2024/01/15 12:00:10;;;;;;;11.90;7.60;;;3.40;99.90;;;;;;5074510;28;20464;-69
2024/01/15 12:02:39;;;;;;;11.17;8.00;;;3.50;99.90;;;;;;5074313;28;20437;-69
2024/01/15 12:05:07;;;;;;;9.07;8.13;;;3.60;99.90;;;;;;5074614;28;20448;-68
2024/01/15 12:07:34;;;;;;;8.10;7.30;;;3.60;99.90;;;;;;5074376;28;20526;-68
2024/01/15 12:10:01;;;;;;;7.97;5.90;;;3.60;99.90;;;;;;5074347;28;20484;-68
2024/01/15 12:12:37;;;;;;;9.83;6.57;;;3.50;99.90;;;;;;5074225;28;20444;-67
2024/01/15 12:15:05;;;;;;;12.30;6.63;;;3.40;99.90;;;;;;5074593;28;20428;-67
2024/01/15 12:17:31;;;;;;;8.90;6.00;;;3.40;99.90;;;;;;5074390;28;20449;-68
2024/01/15 12:20:00;;;;;;;15.00;6.27;;;3.40;99.90;;;;;;5073866;28;20896;-67
2024/01/15 12:22:27;;;;;;;7.93;5.80;;;3.30;99.90;;;;;;5072624;28;20934;-67
2024/01/15 12:24:54;;;;;;;8.70;5.93;;;3.20;99.90;;;;;;5074500;28;20551;-68
2024/01/15 12:27:22;;;;;;;13.20;8.30;;;3.20;99.90;;;;;;5074059;28;20476;-67
2024/01/15 12:29:48;;;;;;;12.80;6.43;;;3.20;99.90;;;;;;5073848;28;20469;-67
2024/01/15 12:32:15;;;;;;;9.00;5.93;;;3.20;99.90;;;;;;5074057;28;20440;-67
2024/01/15 12:34:42;;;;;;;7.97;5.80;;;3.20;99.90;;;;;;5073180;28;20954;-67
2024/01/15 12:37:11;;;;;;;9.43;5.20;;;3.20;99.90;;;;;;5073375;28;20441;-67
2024/01/15 12:39:38;;;;;;;7.77;4.87;;;3.20;99.90;;;;;;5073822;28;20472;-67
2024/01/15 12:42:06;;;;;;;6.90;5.23;;;3.20;99.90;;;;;;5073721;28;20444;-66